Route Details

Aircraft Information
Group: Boeing 737 Only
Types: B738
Route Data
Distance: 386nm
Duration: 1h 10m
Origin METAR: MMMY 080042Z 30008KT 10SM FEW070 SCT200 25/14 A2984 RMK 8/078
Dest. METAR: MMMX 080044Z 14010G20KT 10SM SKC 21/04 A3019 NOSIG RMK HZY
Freight Data
(for Feb 8, 2023)
Load Factor:
71%
Manifested Cargo: 38,647lbs
Financial History
Total Freight: 91,390lbs
Average Load: 0lbs/flt
Fuel Used: 20,384lbs
Avg. Fuel Used: 0lbs/flt
Fuel Expense: $11,960
Avg. Fuel Expense: $0
Avg. Fuel Cost: $0/lbs
Total Gross Income: $285,137
Pilot Pay: $797
Total Expenses: $61,608
Total Revenue: $210,140
Average Revenue: $0

Capitol Logistics 782




MMMY
General Mariano Escobedo International Airport
Monterrey, MX
MMMX
Benito Juárez International Airport
Mexico City, MX

Activity Log

Date Flight Route Aircraft Duration
09/12/2022 CPX782 Not Available B738 1h 48m
07/10/2022 CPX782 KERG1A KERGA UT132 DARAN DARA2A B738 1h 20m
07/01/2022 CPX3127 KERG1B KERGA UT132 DARAN DARA2A B738 1h 33m